Language selection

Features

My Weather Profile Weather Topics  | 

Atlantic - Newfoundland: Past 24 Hour Conditions

 

West Chedabucto Bay - 44489

02:00 PM ADT 11 April 2021Buoy position: 45.49N 61.14W
Disclaimer

This table is a summary of hourly weather conditions for the past 24 hours.
Please note that these observations might not always be representative of weather conditions over their associated marine area.

Date / Time
(ADT)
Wind(knots) Wave height(m) Wave period(s) Pressure(kPa) Air tempC) Water tempC)
11 April 2021
14:00 NW 22 gust 26 0.7 3.2 100.3 2 2
13:00 NW 23 gust 28 0.6 3.0 100.4 2 2
12:00 NW 21 gust 24 0.5 2.8 100.4 2 2
11:00 NW 21 gust 26 0.6 2.9 100.4 2 2
10:00 NW 19 gust 22 0.5 3.1 100.5 1 2
9:00 NW 19 gust 24 0.6 3.2 100.5 1 2
8:00 NW 17 gust 21 0.5 3.3 100.6 1 2
7:00 NW 18 gust 22 0.5 3.1 100.7 1 2
6:00 NW 18 gust 22 0.5 3.3 100.7 1 2
5:00 NW 17 gust 20 0.4 3.2 100.7 1 2
4:00 NW 14 gust 17 0.3 4.2 100.7 0 2
3:00 NW 14 gust 18 0.3 4.6 100.8 0 2
2:00 NW 12 gust 14 0.3 4.7 100.9 0 2
1:00 NNW 14 gust 16 0.4 3.5 101.0 0 2
0:00 NNW 13 gust 17 0.4 4.1 101.1 0 2
10 April 2021
23:00 N 16 gust 22 0.4 3.8 101.1 0 2
22:00 NNW 14 gust 17 0.4 4.4 101.1 0 2
21:00 NNW 15 gust 19 0.4 4.2 101.1 0 2
20:00 NNW 19 gust 24 0.5 3.1 101.1 0 2
19:00 NNW 18 gust 23 0.6 3.2 101.1 1 2
18:00 NW 20 gust 23 0.6 3.2 101.1 1 3
17:00 NNW 19 gust 24 0.7 3.3 101.2 2 3
16:00 NW 24 gust 30 0.8 3.5 101.2 2 3
15:00 NW 23 gust 30 0.7 3.3 101.1 3 3
14:00 WNW 21 gust 26 0.6 3.4 101.2 3 3

Zoom-in to make a selection

Map of Atlantic - Newfoundland marine weather areas Banquereau - 44139 East Chedabucto Bay - 44488 West Chedabucto Bay - 44489 Blanc-Sablon Airport Cap Whittle Chevery Natashquan Airport Heath Point Îles de la Madeleine Airport Miscou Island Eskasoni (First Nations) Grand Étang Ingonish Beach North Mountain St.Paul Island J.A. Douglas McCurdy Sydney Airport Charlottetown Airport East Point North Cape Argentia Bonavista Burgeo Cape Race Corner Brook Daniel's Harbour Englee Ferolle Point La Scie Port aux Basques Rocky Harbour Sagona Island St. Anthony Airport St. John's Int'l Airport St. Lawrence Stephenville Airport Twillingate Winterland Branch Hill Wreckhouse Grates Cove Pool's Island Marticot Island Long Pond Cartwright Airport Mary's Harbour
Legend:
buoy Buoy
land station Land Station

Atlantic - Newfoundland Area

Another Region

What we are doing

Date modified: